Time;durP1;ratioP1;P1;durP2;ratioP2;P2;SDS_P1;SDS_P2;PMS_P1;PMS_P2;Temp;Humidity;BMP_temperature;BMP_pressure;BME280_temperature;BME280_humidity;BME280_pressure;Samples;Min_cycle;Max_cycle;Signal;HPM_P1;HPM_P2
2022/10/14 00:01:31;;;;;;;16.60;9.40;;;;;;;;;;5033723;28;20476;-72
2022/10/14 00:03:57;;;;;;;11.30;9.50;;;;;;;;;;5033878;28;20760;-74
2022/10/14 00:06:25;;;;;;;19.63;10.17;;;;;;;;;;5033775;28;20499;-75
2022/10/14 00:08:51;;;;;;;22.33;8.83;;;;;;;;;;5033865;28;20408;-75
2022/10/14 00:11:22;;;;;;;11.33;8.97;;;;;;;;;;5033779;28;20942;-75
2022/10/14 00:13:48;;;;;;;14.07;9.33;;;;;;;;;;5033751;28;20458;-74
2022/10/14 00:16:17;;;;;;;19.30;9.83;;;;;;;;;;5033477;28;20876;-75
2022/10/14 00:18:43;;;;;;;19.27;10.00;;;;;;;;;;5033442;28;20464;-75
2022/10/14 00:21:09;;;;;;;18.33;9.57;;;;;;;;;;5033348;28;20964;-75
2022/10/14 00:23:35;;;;;;;13.40;9.27;;;;;;;;;;5033383;28;20756;-76
2022/10/14 00:26:01;;;;;;;12.10;10.10;;;;;;;;;;5033503;28;20502;-76
2022/10/14 00:28:27;;;;;;;13.60;9.57;;;;;;;;;;5033488;28;20398;-75
2022/10/14 00:30:57;;;;;;;14.23;10.30;;;;;;;;;;5033687;28;20400;-75
2022/10/14 00:33:23;;;;;;;20.43;10.90;;;;;;;;;;5033301;28;20417;-76
2022/10/14 00:36:08;;;;;;;12.17;9.50;;;;;;;;;;5033485;28;20549;-75
2022/10/14 00:38:34;;;;;;;12.87;9.70;;;;;;;;;;5037403;28;20760;-74
2022/10/14 00:41:00;;;;;;;15.57;9.90;;;;;;;;;;5037416;28;20432;-75
2022/10/14 00:43:27;;;;;;;17.23;10.23;;;;;;;;;;5037332;28;20409;-75
2022/10/14 00:45:53;;;;;;;13.13;9.10;;;;;;;;;;5037319;28;20436;-74
2022/10/14 00:48:22;;;;;;;17.47;10.30;;;;;;;;;;5037346;28;20985;-74
2022/10/14 00:50:51;;;;;;;15.90;9.33;;;;;;;;;;5037214;28;20942;-74
2022/10/14 00:53:17;;;;;;;10.83;9.73;;;;;;;;;;5037133;28;20414;-74
2022/10/14 00:55:43;;;;;;;10.87;9.97;;;;;;;;;;5037030;28;20831;-74
2022/10/14 00:58:09;;;;;;;12.50;9.10;;;;;;;;;;5037051;28;20784;-74
2022/10/14 01:00:36;;;;;;;13.50;8.77;;;;;;;;;;5036991;28;20405;-74
2022/10/14 01:03:06;;;;;;;10.97;9.70;;;;;;;;;;5036955;28;20402;-75
2022/10/14 01:05:36;;;;;;;13.90;10.90;;;;;;;;;;5035637;28;20456;-74
2022/10/14 01:08:06;;;;;;;18.47;9.43;;;;;;;;;;5036972;28;20402;-74
2022/10/14 01:10:41;;;;;;;15.77;8.40;;;;;;;;;;5036799;28;20439;-74
2022/10/14 01:13:07;;;;;;;13.63;9.40;;;;;;;;;;5036749;28;20410;-74
2022/10/14 01:15:36;;;;;;;19.97;9.80;;;;;;;;;;5036913;28;20762;-74
2022/10/14 01:18:11;;;;;;;19.23;10.00;;;;;;;;;;5036741;28;20429;-74
2022/10/14 01:20:37;;;;;;;18.20;9.33;;;;;;;;;;5036691;28;20401;-73
2022/10/14 01:23:22;;;;;;;10.83;9.57;;;;;;;;;;5036574;28;20939;-73
2022/10/14 01:25:51;;;;;;;13.30;9.10;;;;;;;;;;5035296;28;20514;-74
2022/10/14 01:28:17;;;;;;;16.00;8.93;;;;;;;;;;5036481;28;20420;-74
2022/10/14 01:30:45;;;;;;;11.20;9.17;;;;;;;;;;5035220;28;20433;-74
2022/10/14 01:33:14;;;;;;;17.93;9.90;;;;;;;;;;5036393;28;20947;-74
2022/10/14 01:36:01;;;;;;;16.80;9.83;;;;;;;;;;5036303;28;20429;-73
2022/10/14 01:38:30;;;;;;;18.43;9.43;;;;;;;;;;5036336;28;20417;-73
2022/10/14 01:40:56;;;;;;;10.70;9.20;;;;;;;;;;5036305;28;20493;-72
2022/10/14 01:43:23;;;;;;;14.03;9.67;;;;;;;;;;5036158;28;20503;-73
2022/10/14 01:45:49;;;;;;;15.47;10.17;;;;;;;;;;5036165;28;20463;-74
2022/10/14 01:48:17;;;;;;;16.83;9.80;;;;;;;;;;5034819;28;20496;-74
2022/10/14 01:50:44;;;;;;;15.40;9.60;;;;;;;;;;5036146;28;20828;-74
2022/10/14 01:53:19;;;;;;;15.37;9.53;;;;;;;;;;5036101;28;20754;-75
2022/10/14 01:55:46;;;;;;;10.97;8.97;;;;;;;;;;5035937;28;20431;-74
2022/10/14 01:58:13;;;;;;;15.13;10.07;;;;;;;;;;5034736;28;20447;-74
2022/10/14 02:00:39;;;;;;;19.23;9.10;;;;;;;;;;5035901;28;20496;-74
2022/10/14 02:03:05;;;;;;;15.10;9.60;;;;;;;;;;5035873;28;20959;-74
2022/10/14 02:05:34;;;;;;;17.40;9.87;;;;;;;;;;5034592;28;20744;-74
2022/10/14 02:08:15;;;;;;;13.53;10.27;;;;;;;;;;5035769;28;20429;-74
2022/10/14 02:10:41;;;;;;;16.50;9.17;;;;;;;;;;5034472;28;20470;-72
2022/10/14 02:13:13;;;;;;;9.50;8.60;;;;;;;;;;5035702;28;20416;-75
2022/10/14 02:15:39;;;;;;;11.63;8.90;;;;;;;;;;5035532;28;20417;-74
2022/10/14 02:18:08;;;;;;;11.40;8.97;;;;;;;;;;5034250;28;20490;-75
2022/10/14 02:20:41;;;;;;;20.17;9.23;;;;;;;;;;5035492;28;20497;-74
2022/10/14 02:23:11;;;;;;;17.90;9.77;;;;;;;;;;5035498;28;20551;-74
2022/10/14 02:25:39;;;;;;;13.77;8.63;;;;;;;;;;5035469;28;20406;-74
2022/10/14 02:28:07;;;;;;;10.03;9.03;;;;;;;;;;5035401;28;20471;-74
2022/10/14 02:30:35;;;;;;;17.43;10.07;;;;;;;;;;5035352;28;20412;-75
2022/10/14 02:33:02;;;;;;;11.50;8.73;;;;;;;;;;5035346;28;20439;-74
2022/10/14 02:35:30;;;;;;;12.60;9.13;;;;;;;;;;5035193;28;20401;-74
2022/10/14 02:37:57;;;;;;;22.50;9.73;;;;;;;;;;5035243;28;20437;-74
2022/10/14 02:40:26;;;;;;;10.43;9.33;;;;;;;;;;5035375;28;20424;-74
2022/10/14 02:42:52;;;;;;;20.23;9.50;;;;;;;;;;5035123;28;20428;-74
2022/10/14 02:45:18;;;;;;;10.27;9.17;;;;;;;;;;5035154;28;20460;-74
2022/10/14 02:47:44;;;;;;;21.70;9.33;;;;;;;;;;5034840;28;20511;-74
2022/10/14 02:50:10;;;;;;;14.40;9.97;;;;;;;;;;5034968;28;20406;-74
2022/10/14 02:52:36;;;;;;;23.97;9.47;;;;;;;;;;5034871;28;20945;-73
2022/10/14 02:55:02;;;;;;;11.80;9.30;;;;;;;;;;5035043;28;20413;-73
2022/10/14 02:57:28;;;;;;;12.07;9.33;;;;;;;;;;5034746;28;20977;-74
2022/10/14 02:59:54;;;;;;;14.87;8.50;;;;;;;;;;5034517;28;20447;-74
2022/10/14 03:02:20;;;;;;;13.90;9.53;;;;;;;;;;5034753;28;20419;-74
2022/10/14 03:04:47;;;;;;;12.20;8.93;;;;;;;;;;5034626;28;20490;-73
2022/10/14 03:07:13;;;;;;;13.80;9.10;;;;;;;;;;5034639;28;20474;-74
2022/10/14 03:09:38;;;;;;;23.83;9.50;;;;;;;;;;5034646;28;20406;-73
2022/10/14 03:12:04;;;;;;;12.63;8.23;;;;;;;;;;5034548;28;20413;-71
2022/10/14 03:14:30;;;;;;;9.03;8.13;;;;;;;;;;5034480;28;20417;-74
2022/10/14 03:16:56;;;;;;;10.23;8.23;;;;;;;;;;5034285;28;20493;-73
2022/10/14 03:19:22;;;;;;;18.33;8.83;;;;;;;;;;5034367;28;20437;-75
2022/10/14 03:21:48;;;;;;;11.37;7.83;;;;;;;;;;5034444;28;20417;-72
2022/10/14 03:24:14;;;;;;;13.80;7.93;;;;;;;;;;5034314;28;20491;-75
2022/10/14 03:26:41;;;;;;;22.17;8.53;;;;;;;;;;5034338;28;20473;-72
2022/10/14 03:29:07;;;;;;;11.67;7.97;;;;;;;;;;5034500;28;20403;-73
2022/10/14 03:31:32;;;;;;;10.33;7.90;;;;;;;;;;5034218;28;20467;-73
2022/10/14 03:33:58;;;;;;;8.93;8.17;;;;;;;;;;5034102;28;20466;-74
2022/10/14 03:36:24;;;;;;;19.83;8.17;;;;;;;;;;5033060;28;20490;-72
2022/10/14 03:38:50;;;;;;;18.63;9.70;;;;;;;;;;5034208;28;20548;-74
2022/10/14 03:41:16;;;;;;;32.70;26.60;;;;;;;;;;5034042;28;20893;-73
2022/10/14 03:43:42;;;;;;;22.23;17.63;;;;;;;;;;5034053;28;20885;-73
2022/10/14 03:46:08;;;;;;;17.80;8.67;;;;;;;;;;5032719;28;20902;-72
2022/10/14 03:48:34;;;;;;;10.43;7.87;;;;;;;;;;5033659;28;20480;-73
2022/10/14 03:51:00;;;;;;;9.00;7.77;;;;;;;;;;5033868;28;20422;-73
2022/10/14 03:53:26;;;;;;;19.73;9.27;;;;;;;;;;5033842;28;20422;-70
2022/10/14 03:55:52;;;;;;;13.17;8.10;;;;;;;;;;5033692;28;20530;-74
2022/10/14 03:58:18;;;;;;;9.20;8.13;;;;;;;;;;5033741;28;20426;-72
2022/10/14 04:00:44;;;;;;;8.57;7.80;;;;;;;;;;5032396;28;20476;-72
2022/10/14 04:03:10;;;;;;;8.70;7.80;;;;;;;;;;5033883;28;20429;-74
2022/10/14 04:05:36;;;;;;;20.83;8.37;;;;;;;;;;5033681;28;20417;-75
2022/10/14 04:08:02;;;;;;;11.50;9.20;;;;;;;;;;5033719;28;20788;-73
2022/10/14 04:10:28;;;;;;;8.80;7.90;;;;;;;;;;5033476;28;20417;-73
2022/10/14 04:12:54;;;;;;;9.40;7.67;;;;;;;;;;5033136;28;20417;-73
2022/10/14 04:15:21;;;;;;;15.90;8.63;;;;;;;;;;5033544;28;20408;-73
2022/10/14 04:17:47;;;;;;;18.87;8.43;;;;;;;;;;5033387;28;21034;-73
2022/10/14 04:20:13;;;;;;;12.87;9.20;;;;;;;;;;5033524;28;20957;-71
2022/10/14 04:22:39;;;;;;;10.47;8.20;;;;;;;;;;5032205;28;20932;-72
2022/10/14 04:25:06;;;;;;;10.20;8.20;;;;;;;;;;5033410;28;20409;-73
2022/10/14 04:27:32;;;;;;;9.80;8.17;;;;;;;;;;5033335;28;20816;-73
2022/10/14 04:29:58;;;;;;;11.90;8.13;;;;;;;;;;5033365;28;20544;-73
2022/10/14 04:32:24;;;;;;;13.20;8.80;;;;;;;;;;5033175;28;20433;-71
2022/10/14 04:34:50;;;;;;;12.00;7.90;;;;;;;;;;5033325;28;20401;-72
2022/10/14 04:37:16;;;;;;;14.27;9.13;;;;;;;;;;5033172;28;21118;-72
2022/10/14 04:39:42;;;;;;;10.40;6.80;;;;;;;;;;5033331;28;20423;-74
2022/10/14 04:42:08;;;;;;;22.30;7.23;;;;;;;;;;5033320;28;20401;-73
2022/10/14 04:44:34;;;;;;;5.40;5.00;;;;;;;;;;5032989;28;20413;-73
2022/10/14 04:47:00;;;;;;;10.63;5.93;;;;;;;;;;5032932;28;20473;-71
2022/10/14 04:49:26;;;;;;;21.03;7.10;;;;;;;;;;5033085;28;20416;-72
2022/10/14 04:51:52;;;;;;;9.43;5.00;;;;;;;;;;5033168;28;20766;-69
2022/10/14 04:54:18;;;;;;;6.03;5.57;;;;;;;;;;5033154;28;20418;-72
2022/10/14 04:56:44;;;;;;;7.33;5.20;;;;;;;;;;5033143;28;20514;-72
2022/10/14 04:59:10;;;;;;;7.10;4.70;;;;;;;;;;5033100;28;20422;-71
2022/10/14 05:01:36;;;;;;;6.33;5.80;;;;;;;;;;5033029;28;20401;-73
2022/10/14 05:04:02;;;;;;;5.00;4.43;;;;;;;;;;5032965;28;20436;-72
2022/10/14 05:06:28;;;;;;;4.80;4.33;;;;;;;;;;5032046;28;20428;-70
2022/10/14 05:08:54;;;;;;;6.03;5.20;;;;;;;;;;5032947;28;20425;-70
2022/10/14 05:11:20;;;;;;;5.77;5.20;;;;;;;;;;5033021;28;20405;-73
2022/10/14 05:13:46;;;;;;;8.13;4.93;;;;;;;;;;5032914;28;20409;-73
2022/10/14 05:16:12;;;;;;;5.50;5.00;;;;;;;;;;5032904;28;20555;-71
2022/10/14 05:18:38;;;;;;;5.30;4.90;;;;;;;;;;5031604;28;20491;-72
2022/10/14 05:21:04;;;;;;;8.73;4.50;;;;;;;;;;5032863;28;20418;-72
2022/10/14 05:23:30;;;;;;;11.67;4.97;;;;;;;;;;5034032;28;20430;-74
2022/10/14 05:25:56;;;;;;;11.20;5.60;;;;;;;;;;5036566;28;20949;-73
2022/10/14 05:28:22;;;;;;;8.07;4.83;;;;;;;;;;5036527;28;20406;-73
2022/10/14 05:30:48;;;;;;;6.70;5.10;;;;;;;;;;5036448;28;20408;-73
2022/10/14 05:33:14;;;;;;;5.20;4.73;;;;;;;;;;5036646;28;20460;-69
2022/10/14 05:35:41;;;;;;;6.13;4.70;;;;;;;;;;5036380;28;20771;-70
2022/10/14 05:38:07;;;;;;;7.50;5.00;;;;;;;;;;5036438;28;20425;-68
2022/10/14 05:40:33;;;;;;;10.93;4.47;;;;;;;;;;5036559;28;20505;-69
2022/10/14 05:42:59;;;;;;;7.03;4.30;;;;;;;;;;5036226;28;20449;-68
2022/10/14 05:45:25;;;;;;;7.00;4.70;;;;;;;;;;5036167;28;20418;-68
2022/10/14 05:47:52;;;;;;;4.60;4.20;;;;;;;;;;5036137;28;20564;-68
2022/10/14 05:50:18;;;;;;;13.70;4.90;;;;;;;;;;5036180;28;20412;-69
2022/10/14 05:52:44;;;;;;;7.23;4.90;;;;;;;;;;5036020;28;20517;-68
2022/10/14 05:55:10;;;;;;;7.23;4.67;;;;;;;;;;5036112;28;20447;-67
2022/10/14 05:57:36;;;;;;;4.43;3.87;;;;;;;;;;5035900;28;20463;-69
2022/10/14 06:00:04;;;;;;;4.87;4.37;;;;;;;;;;5035942;28;20393;-69
2022/10/14 06:02:30;;;;;;;5.80;5.13;;;;;;;;;;5035882;28;20423;-68
2022/10/14 06:04:57;;;;;;;9.07;4.97;;;;;;;;;;5034599;28;20414;-68
2022/10/14 06:07:23;;;;;;;7.03;4.80;;;;;;;;;;5035873;28;20445;-69
2022/10/14 06:09:49;;;;;;;17.80;4.97;;;;;;;;;;5035697;28;20495;-68
2022/10/14 06:12:15;;;;;;;10.23;4.90;;;;;;;;;;5035669;28;20402;-69
2022/10/14 06:14:41;;;;;;;5.63;4.60;;;;;;;;;;5035656;28;20406;-68
2022/10/14 06:17:07;;;;;;;20.00;4.37;;;;;;;;;;5035450;28;20972;-69
2022/10/14 06:19:33;;;;;;;4.63;4.43;;;;;;;;;;5035652;28;20779;-67
2022/10/14 06:21:59;;;;;;;14.20;4.90;;;;;;;;;;5035548;28;20410;-70
2022/10/14 06:24:25;;;;;;;5.10;4.90;;;;;;;;;;5034283;28;20503;-68
2022/10/14 06:26:51;;;;;;;8.60;5.57;;;;;;;;;;5034240;28;20639;-69
2022/10/14 06:29:16;;;;;;;11.03;4.80;;;;;;;;;;5035350;28;20402;-68
2022/10/14 06:31:43;;;;;;;6.57;5.70;;;;;;;;;;5035391;28;20422;-69
2022/10/14 06:34:09;;;;;;;21.50;10.97;;;;;;;;;;5034626;28;20810;-70
2022/10/14 06:36:36;;;;;;;10.20;5.83;;;;;;;;;;5035204;28;20471;-69
2022/10/14 06:39:03;;;;;;;8.83;5.63;;;;;;;;;;5035303;28;20403;-69
2022/10/14 06:41:29;;;;;;;6.17;5.67;;;;;;;;;;5035205;28;20556;-69
2022/10/14 06:43:55;;;;;;;13.33;6.60;;;;;;;;;;5035138;28;20963;-68
2022/10/14 06:46:21;;;;;;;11.50;7.10;;;;;;;;;;5034888;28;20408;-67
2022/10/14 06:48:47;;;;;;;7.30;6.63;;;;;;;;;;5034880;28;20485;-68
2022/10/14 06:51:13;;;;;;;8.10;6.70;;;;;;;;;;5034922;28;20498;-69
2022/10/14 06:53:39;;;;;;;8.27;5.53;;;;;;;;;;5034924;28;20955;-68
2022/10/14 06:56:06;;;;;;;5.80;5.30;;;;;;;;;;5035017;28;20875;-69
2022/10/14 06:58:32;;;;;;;6.50;5.60;;;;;;;;;;5034809;28;20858;-68
2022/10/14 07:01:02;;;;;;;8.70;5.10;;;;;;;;;;5034768;28;20399;-68
2022/10/14 07:03:28;;;;;;;11.40;6.53;;;;;;;;;;5034944;28;20426;-67
2022/10/14 07:05:54;;;;;;;8.07;6.57;;;;;;;;;;5034672;28;20404;-68
2022/10/14 07:08:20;;;;;;;9.83;7.10;;;;;;;;;;5034599;28;20419;-68
2022/10/14 07:10:46;;;;;;;10.20;6.67;;;;;;;;;;5034563;28;20411;-69
2022/10/14 07:13:12;;;;;;;8.00;5.57;;;;;;;;;;5034769;28;20497;-69
2022/10/14 07:15:39;;;;;;;7.63;6.40;;;;;;;;;;5034526;28;20956;-68
2022/10/14 07:18:05;;;;;;;8.00;6.03;;;;;;;;;;5034624;28;20784;-69
2022/10/14 07:20:32;;;;;;;7.90;6.70;;;;;;;;;;5034419;28;20418;-68
2022/10/14 07:22:58;;;;;;;9.17;8.20;;;;;;;;;;5034395;28;20492;-68
2022/10/14 07:25:24;;;;;;;13.00;6.20;;;;;;;;;;5034402;28;20449;-68
2022/10/14 07:27:52;;;;;;;10.70;5.80;;;;;;;;;;5033071;28;20423;-70
2022/10/14 07:30:18;;;;;;;7.50;6.13;;;;;;;;;;5034477;28;20898;-68
2022/10/14 07:32:44;;;;;;;11.30;5.40;;;;;;;;;;5034236;28;20418;-70
2022/10/14 07:35:10;;;;;;;17.90;6.00;;;;;;;;;;5034269;28;20753;-68
2022/10/14 07:37:37;;;;;;;7.50;6.23;;;;;;;;;;5034004;28;20469;-68
2022/10/14 07:40:03;;;;;;;6.27;5.63;;;;;;;;;;5034159;28;20901;-69
2022/10/14 07:42:29;;;;;;;6.50;5.33;;;;;;;;;;5034069;28;20414;-68
2022/10/14 07:44:56;;;;;;;6.37;5.37;;;;;;;;;;5034079;28;20774;-67
2022/10/14 07:47:22;;;;;;;11.43;5.80;;;;;;;;;;5032786;28;20474;-68
2022/10/14 07:49:48;;;;;;;6.90;5.50;;;;;;;;;;5032688;28;20567;-68
2022/10/14 07:52:14;;;;;;;12.20;5.53;;;;;;;;;;5033922;28;20780;-67
2022/10/14 07:54:41;;;;;;;11.77;5.80;;;;;;;;;;5033875;28;20415;-67
2022/10/14 07:57:07;;;;;;;6.17;5.47;;;;;;;;;;5033698;28;20465;-67
2022/10/14 07:59:32;;;;;;;5.40;5.10;;;;;;;;;;5033699;28;20905;-68
2022/10/14 08:01:58;;;;;;;11.63;5.53;;;;;;;;;;5032500;28;20477;-67
2022/10/14 08:04:24;;;;;;;12.33;5.20;;;;;;;;;;5033605;28;20414;-68
2022/10/14 08:06:51;;;;;;;6.57;6.10;;;;;;;;;;5033547;28;20510;-68
2022/10/14 08:09:18;;;;;;;16.93;6.17;;;;;;;;;;5033684;28;20434;-68
2022/10/14 08:11:44;;;;;;;11.63;5.80;;;;;;;;;;5033620;28;20817;-69
2022/10/14 08:14:10;;;;;;;6.03;5.37;;;;;;;;;;5032282;28;20971;-68
2022/10/14 08:16:36;;;;;;;10.50;6.10;;;;;;;;;;5033511;28;20475;-71
2022/10/14 08:19:05;;;;;;;6.63;6.10;;;;;;;;;;5033416;28;20418;-72
2022/10/14 08:21:31;;;;;;;10.17;6.60;;;;;;;;;;5033513;28;20423;-71
2022/10/14 08:23:57;;;;;;;10.50;6.53;;;;;;;;;;5033578;28;20418;-72
2022/10/14 08:26:23;;;;;;;13.30;8.80;;;;;;;;;;5033471;28;20429;-71
2022/10/14 08:28:50;;;;;;;19.13;8.50;;;;;;;;;;5035392;28;20418;-70
2022/10/14 08:31:16;;;;;;;10.07;8.83;;;;;;;;;;5053110;28;20418;-74
2022/10/14 08:33:42;;;;;;;8.03;7.00;;;;;;;;;;5053151;28;20438;-71
2022/10/14 08:36:08;;;;;;;12.70;7.03;;;;;;;;;;5053073;28;20480;-72
2022/10/14 08:38:34;;;;;;;10.10;7.43;;;;;;;;;;5053161;28;20504;-72
2022/10/14 08:41:13;;;;;;;16.03;7.10;;;;;;;;;;5053190;28;20394;-72
2022/10/14 08:43:41;;;;;;;8.50;7.23;;;;;;;;;;5053223;28;20844;-71
2022/10/14 08:46:18;;;;;;;10.60;7.30;;;;;;;;;;5052951;28;20414;-72
2022/10/14 08:48:44;;;;;;;12.23;7.10;;;;;;;;;;5052846;28;20461;-72
2022/10/14 08:51:12;;;;;;;10.43;7.30;;;;;;;;;;5051772;28;20936;-71
2022/10/14 08:53:48;;;;;;;13.87;7.10;;;;;;;;;;5053117;28;20463;-71
2022/10/14 08:56:14;;;;;;;7.37;6.80;;;;;;;;;;5053182;28;20461;-72
2022/10/14 08:58:45;;;;;;;7.40;6.80;;;;;;;;;;5055901;28;20907;-72
2022/10/14 09:01:18;;;;;;;11.37;7.03;;;;;;;;;;5056990;28;20441;-72
2022/10/14 09:03:44;;;;;;;8.77;7.80;;;;;;;;;;5056920;28;20422;-72
2022/10/14 09:06:30;;;;;;;11.30;7.00;;;;;;;;;;5056949;28;20426;-72
2022/10/14 09:09:19;;;;;;;6.77;6.10;;;;;;;;;;5056661;28;20866;-71
2022/10/14 09:11:49;;;;;;;11.53;7.17;;;;;;;;;;5056830;28;20412;-71
2022/10/14 09:14:20;;;;;;;10.20;6.83;;;;;;;;;;5056760;28;20410;-72
2022/10/14 09:16:48;;;;;;;11.40;6.33;;;;;;;;;;5056581;28;20477;-71
2022/10/14 09:19:18;;;;;;;6.87;6.17;;;;;;;;;;5056832;28;20403;-72
2022/10/14 09:21:48;;;;;;;8.77;6.83;;;;;;;;;;5056447;28;20412;-72
2022/10/14 09:24:23;;;;;;;8.23;6.07;;;;;;;;;;5056481;28;20396;-73
2022/10/14 09:27:06;;;;;;;4.87;4.50;;;;;;;;;;5056165;28;20415;-72
2022/10/14 09:29:42;;;;;;;6.53;5.00;;;;;;;;;;5056248;28;20497;-72
2022/10/14 09:32:11;;;;;;;7.33;3.63;;;;;;;;;;5056205;28;20402;-74
2022/10/14 09:34:39;;;;;;;4.43;3.83;;;;;;;;;;5056142;28;20456;-73
2022/10/14 09:37:25;;;;;;;4.70;3.10;;;;;;;;;;5056278;28;20473;-72
2022/10/14 09:39:52;;;;;;;3.57;3.30;;;;;;;;;;5054960;28;20929;-74
2022/10/14 09:42:20;;;;;;;3.33;3.13;;;;;;;;;;5056222;28;20411;-71
2022/10/14 09:45:03;;;;;;;6.23;3.50;;;;;;;;;;5056239;28;20416;-71
2022/10/14 09:47:29;;;;;;;2.77;2.67;;;;;;;;;;5055930;28;20465;-71
2022/10/14 09:49:58;;;;;;;3.60;2.67;;;;;;;;;;5056205;28;20548;-70
2022/10/14 09:52:25;;;;;;;8.83;3.00;;;;;;;;;;5056057;28;20763;-71
2022/10/14 09:54:54;;;;;;;3.57;2.77;;;;;;;;;;5056080;28;20429;-71
2022/10/14 09:57:20;;;;;;;8.73;2.63;;;;;;;;;;5055875;28;20467;-72
2022/10/14 09:59:58;;;;;;;2.70;2.60;;;;;;;;;;5055879;28;20417;-71
2022/10/14 10:02:39;;;;;;;4.20;2.80;;;;;;;;;;5055786;28;20407;-72
2022/10/14 10:05:32;;;;;;;2.67;2.57;;;;;;;;;;5055958;28;20816;-69
2022/10/14 10:08:02;;;;;;;4.03;2.80;;;;;;;;;;5054560;28;20440;-69
2022/10/14 10:10:29;;;;;;;2.43;2.23;;;;;;;;;;5054929;28;20523;-69
2022/10/14 10:12:56;;;;;;;2.77;2.63;;;;;;;;;;5055481;28;20414;-68
2022/10/14 10:15:22;;;;;;;2.80;2.70;;;;;;;;;;5055561;28;20502;-69
2022/10/14 10:17:48;;;;;;;2.60;2.50;;;;;;;;;;5055323;28;20559;-69
2022/10/14 10:20:17;;;;;;;2.87;2.63;;;;;;;;;;5055542;28;20403;-69
2022/10/14 10:22:43;;;;;;;3.37;2.80;;;;;;;;;;5055482;28;20416;-69
2022/10/14 10:25:10;;;;;;;3.80;2.70;;;;;;;;;;5054014;28;20420;-69
2022/10/14 10:27:38;;;;;;;2.37;2.27;;;;;;;;;;5054068;28;20418;-69
2022/10/14 10:30:26;;;;;;;2.50;2.40;;;;;;;;;;5055261;28;20419;-70
2022/10/14 10:33:07;;;;;;;7.50;3.13;;;;;;;;;;5055058;28;20412;-69
2022/10/14 10:35:43;;;;;;;2.60;2.40;;;;;;;;;;5054751;28;20958;-70
2022/10/14 10:38:12;;;;;;;6.83;2.40;;;;;;;;;;5054860;28;20471;-69
2022/10/14 10:40:58;;;;;;;2.80;2.60;;;;;;;;;;5054331;28;20409;-69
2022/10/14 10:43:36;;;;;;;6.30;2.20;;;;;;;;;;5054825;28;20420;-69
2022/10/14 10:46:17;;;;;;;2.63;2.47;;;;;;;;;;5054897;28;20412;-69
2022/10/14 10:48:46;;;;;;;3.00;2.80;;;;;;;;;;5053367;28;20471;-70
2022/10/14 10:51:33;;;;;;;2.23;2.23;;;;;;;;;;5054802;28;20772;-70
2022/10/14 10:54:04;;;;;;;6.73;2.30;;;;;;;;;;5054718;28;20767;-70
2022/10/14 10:56:37;;;;;;;3.87;2.53;;;;;;;;;;5054432;28;20502;-69
2022/10/14 10:59:05;;;;;;;4.17;2.20;;;;;;;;;;5053331;28;20424;-69
2022/10/14 11:01:54;;;;;;;2.40;2.20;;;;;;;;;;5054602;28;20397;-69
2022/10/14 11:04:26;;;;;;;6.63;2.40;;;;;;;;;;5053105;28;20427;-69
2022/10/14 11:12:49;;;;;;;1.97;1.70;;;;;;;;;;5054525;28;20462;-68
2022/10/14 11:15:21;;;;;;;2.50;2.40;;;;;;;;;;5054112;28;20412;-69
2022/10/14 11:17:51;;;;;;;3.73;2.10;;;;;;;;;;5052634;28;20483;-68
2022/10/14 11:20:26;;;;;;;4.73;2.03;;;;;;;;;;5054257;28;20408;-67
2022/10/14 11:23:03;;;;;;;3.03;2.30;;;;;;;;;;5054096;28;20912;-68
2022/10/14 11:25:29;;;;;;;10.37;2.40;;;;;;;;;;5054158;28;20740;-71
2022/10/14 11:28:07;;;;;;;3.93;2.30;;;;;;;;;;5054181;28;20408;-68
2022/10/14 11:30:42;;;;;;;2.67;2.47;;;;;;;;;;5054129;28;20414;-71
2022/10/14 11:33:20;;;;;;;7.70;2.57;;;;;;;;;;5053774;28;20411;-70
2022/10/14 11:35:53;;;;;;;2.20;2.10;;;;;;;;;;5053738;28;20411;-70
2022/10/14 11:38:25;;;;;;;2.23;1.90;;;;;;;;;;5053656;28;20426;-70
2022/10/14 11:40:58;;;;;;;2.10;2.10;;;;;;;;;;5053816;28;20557;-71
2022/10/14 11:43:31;;;;;;;1.93;1.83;;;;;;;;;;5053397;28;20415;-71
2022/10/14 11:46:05;;;;;;;6.73;2.00;;;;;;;;;;5053729;28;20415;-70
2022/10/14 11:48:45;;;;;;;4.47;2.50;;;;;;;;;;5053195;28;21035;-71
2022/10/14 11:51:15;;;;;;;1.80;1.70;;;;;;;;;;5053260;28;20415;-71
2022/10/14 11:53:44;;;;;;;3.03;2.10;;;;;;;;;;5053836;28;20403;-67
2022/10/14 11:56:19;;;;;;;3.90;2.03;;;;;;;;;;5053592;28;20466;-65
2022/10/14 11:58:47;;;;;;;1.90;1.90;;;;;;;;;;5053587;28;20427;-69
2022/10/14 12:01:14;;;;;;;3.17;2.00;;;;;;;;;;5053677;28;20404;-68
2022/10/14 12:03:54;;;;;;;2.10;1.40;;;;;;;;;;5053534;28;20430;-70
2022/10/14 12:06:26;;;;;;;1.87;1.73;;;;;;;;;;5052367;28;20423;-69
2022/10/14 12:08:57;;;;;;;2.13;1.90;;;;;;;;;;5053594;28;20523;-68
2022/10/14 12:11:32;;;;;;;1.80;1.80;;;;;;;;;;5053476;28;20417;-71
2022/10/14 12:14:07;;;;;;;1.80;1.70;;;;;;;;;;5053402;28;20434;-72
2022/10/14 12:16:33;;;;;;;1.97;1.87;;;;;;;;;;5053355;28;20459;-67
2022/10/14 12:18:59;;;;;;;1.90;1.87;;;;;;;;;;5053289;28;20509;-69
2022/10/14 12:21:34;;;;;;;2.00;1.73;;;;;;;;;;5053319;28;20741;-69
2022/10/14 12:24:04;;;;;;;2.20;2.10;;;;;;;;;;5053185;28;20525;-69
2022/10/14 12:26:40;;;;;;;2.70;2.20;;;;;;;;;;5053225;28;20404;-70
2022/10/14 12:29:08;;;;;;;2.20;2.10;;;;;;;;;;5053168;28;20404;-71
2022/10/14 12:31:35;;;;;;;3.93;2.20;;;;;;;;;;5053139;28;20431;-71
2022/10/14 12:34:13;;;;;;;2.70;1.63;;;;;;;;;;5051530;28;20482;-69
2022/10/14 12:36:40;;;;;;;2.17;2.07;;;;;;;;;;5053120;28;20468;-69
2022/10/14 12:39:19;;;;;;;3.47;2.07;;;;;;;;;;5051845;28;20508;-69
2022/10/14 12:41:53;;;;;;;2.80;1.87;;;;;;;;;;5053075;28;20447;-69
2022/10/14 12:44:20;;;;;;;1.93;1.73;;;;;;;;;;5051839;28;20843;-70
2022/10/14 12:46:47;;;;;;;2.10;1.60;;;;;;;;;;5051708;28;20479;-70
2022/10/14 12:49:26;;;;;;;1.93;1.83;;;;;;;;;;5052988;28;20913;-70
2022/10/14 12:51:57;;;;;;;5.10;4.80;;;;;;;;;;5053095;28;20412;-71
2022/10/14 12:54:24;;;;;;;2.50;2.40;;;;;;;;;;5053030;28;20482;-69
2022/10/14 12:56:53;;;;;;;2.40;2.30;;;;;;;;;;5052892;28;20468;-71
2022/10/14 12:59:22;;;;;;;15.20;13.87;;;;;;;;;;5051881;28;20515;-69
2022/10/14 13:01:53;;;;;;;4.43;4.23;;;;;;;;;;5052907;28;20420;-68
2022/10/14 13:04:19;;;;;;;2.30;2.20;;;;;;;;;;5051663;28;20487;-69
2022/10/14 13:07:05;;;;;;;9.60;6.60;;;;;;;;;;5052917;28;20462;-69
2022/10/14 13:09:33;;;;;;;2.87;2.20;;;;;;;;;;5052770;28;20417;-68
2022/10/14 13:11:59;;;;;;;4.30;2.33;;;;;;;;;;5051919;28;20822;-68
2022/10/14 13:14:26;;;;;;;9.30;2.90;;;;;;;;;;5052873;28;20417;-68
2022/10/14 13:16:52;;;;;;;2.20;1.50;;;;;;;;;;5052811;28;20466;-69
2022/10/14 13:19:33;;;;;;;5.03;1.10;;;;;;;;;;5052755;28;20431;-69
2022/10/14 13:22:34;;;;;;;2.23;2.10;;;;;;;;;;5052683;28;20399;-69
2022/10/14 13:25:11;;;;;;;2.63;1.70;;;;;;;;;;5051489;28;20432;-69
2022/10/14 13:27:45;;;;;;;2.87;1.57;;;;;;;;;;5052684;28;20417;-69
2022/10/14 13:30:17;;;;;;;1.80;1.70;;;;;;;;;;5052747;28;20407;-68
2022/10/14 13:32:43;;;;;;;3.93;2.40;;;;;;;;;;5052696;28;20409;-68
2022/10/14 13:35:27;;;;;;;2.17;2.07;;;;;;;;;;5052698;28;20414;-68
2022/10/14 13:37:54;;;;;;;2.20;1.87;;;;;;;;;;5052622;28;20532;-68
2022/10/14 13:40:33;;;;;;;6.60;1.80;;;;;;;;;;5052677;28;20404;-70
2022/10/14 13:43:07;;;;;;;1.87;1.77;;;;;;;;;;5052650;28;20435;-68
2022/10/14 13:45:42;;;;;;;1.20;1.10;;;;;;;;;;5054919;28;20984;-68
2022/10/14 13:48:13;;;;;;;3.23;1.10;;;;;;;;;;5055996;28;20450;-67
2022/10/14 13:50:39;;;;;;;2.10;1.00;;;;;;;;;;5056207;28;20409;-68
2022/10/14 13:53:06;;;;;;;1.30;1.20;;;;;;;;;;5056021;28;20431;-69
2022/10/14 13:55:41;;;;;;;1.73;1.63;;;;;;;;;;5056094;28;20408;-69
2022/10/14 13:58:07;;;;;;;1.47;1.47;;;;;;;;;;5054648;28;20481;-68
2022/10/14 14:00:35;;;;;;;2.63;1.27;;;;;;;;;;5055926;28;20855;-68
2022/10/14 14:03:11;;;;;;;3.03;1.57;;;;;;;;;;5054576;28;20432;-69
2022/10/14 14:05:36;;;;;;;3.60;1.00;;;;;;;;;;5055817;28;20434;-69
2022/10/14 14:08:03;;;;;;;1.40;1.30;;;;;;;;;;5055795;28;20906;-68
2022/10/14 14:10:29;;;;;;;1.40;1.40;;;;;;;;;;5055812;28;20889;-68
2022/10/14 14:12:55;;;;;;;3.93;1.30;;;;;;;;;;5055705;28;20424;-68
2022/10/14 14:15:26;;;;;;;1.17;1.13;;;;;;;;;;5055683;28;20770;-70
2022/10/14 14:17:52;;;;;;;1.23;1.13;;;;;;;;;;5055380;28;20474;-71
2022/10/14 14:20:21;;;;;;;2.20;1.50;;;;;;;;;;5055532;28;20419;-72
2022/10/14 14:22:47;;;;;;;2.97;1.10;;;;;;;;;;5055524;28;20417;-71
2022/10/14 14:25:19;;;;;;;1.20;1.10;;;;;;;;;;5055427;28;20494;-71
2022/10/14 14:27:53;;;;;;;0.90;0.90;;;;;;;;;;5055406;28;20443;-71
2022/10/14 14:30:22;;;;;;;2.60;1.00;;;;;;;;;;5055307;28;20399;-71
2022/10/14 14:32:48;;;;;;;2.40;1.53;;;;;;;;;;5055263;28;20410;-71
2022/10/14 14:35:14;;;;;;;2.00;1.00;;;;;;;;;;5055332;28;20397;-72
2022/10/14 14:37:45;;;;;;;2.20;0.70;;;;;;;;;;5055148;28;20455;-71
2022/10/14 14:40:15;;;;;;;2.20;1.20;;;;;;;;;;5055210;28;20398;-71
2022/10/14 14:42:41;;;;;;;1.43;1.43;;;;;;;;;;5055184;28;20405;-71
2022/10/14 14:45:20;;;;;;;2.57;1.37;;;;;;;;;;5055041;28;20396;-71
2022/10/14 14:47:50;;;;;;;1.27;1.17;;;;;;;;;;5054824;28;20490;-72
2022/10/14 14:50:17;;;;;;;0.97;0.97;;;;;;;;;;5053610;28;20419;-71
2022/10/14 14:52:44;;;;;;;1.10;1.10;;;;;;;;;;5054957;28;20408;-71